Pincher Creek Airport
CZPC : now visible

Airfield :











YOU CAN JOIN US ON...

 
LOGIN :

Register | Disclaimer

   EN    FR    IT 

 









Legend :    VFR   Marginal VFR   IFR   Intensive IFR   Very Intensive IFR
Visi :
Ceiling :
>= 8 km
>= 3000ft
5 to 8 km
1000 to 3000 ft
1500m to 5 km
500 to 1000 ft
800 to 1500m
200 to 500 ft
< 800m
< 200 ft
Symbols :   Thunderstorms  Fog  Heavy snow  Heavy precipitations  Wind > 20 kt






- Airport Elevation : 3903 ft


CZPC - Pincher Creek

CURRENT METAR :
  • 021703Z AUTO 12006KT 090V170 9SM FEW019 OVC026 15/10 A3008 RMK SLP183 DENSITY ALT 4600FT

EXPIRED METARs :
  • 021622Z AUTO 13007KT 9SM BKN020 BKN100 14/11 A3008 RMK SLP186 DENSITY ALT 4500FT
  • 021600Z AUTO 14008KT 080V150 9SM FEW014 SCT026 BKN100 15/11 A3008 RMK SLP181 DENSITY ALT 4600FT
  • 021550Z AUTO 12008KT 9SM SCT014 SCT019 BKN026 BKN110 15/11 A3008 RMK SLP181 DENSITY ALT 4700FT
  • 021547Z AUTO 10007KT 9SM SCT014 BKN019 BKN026 BKN110 15/11 A3008 RMK SLP180 DENSITY ALT 4700FT
  • 021534Z AUTO 11007KT 9SM SCT016 BKN110 14/10 A3008 RMK SLP186 DENSITY ALT 4500FT
  • 021500Z AUTO 15007KT 9SM SCT016 BKN023 14/11 A3009 RMK SLP180 DENSITY ALT 4600FT
  • 021457Z AUTO 12006KT 090V160 9SM SCT016 BKN023 15/11 A3009 RMK SLP186 DENSITY ALT 4600FT
  • 020300Z AUTO 04003KT 9SM SCT110 18/08 A3001 RMK SLP149 DENSITY ALT 5100FT

TAF N/A
CZEG FIR / North America



MET'MAP, your aeronautical weather chart ! - Copyright ORBIFLY December 2007 - Disclaimer

ORBIFLY MET'MAP TEAM :

Programming & Development : Alexandra Zaïnal
Original concept : Baudouin d'Aumeries
Technical & hardware support : Manuel Goepfert
Assistance : Marc-Olivier Méhu




SOURCES & CREDITS :

   NOAA       Earth
Advisory